Holland, Michigan
Current Conditions -  °F | °C
As of 8:53 PM on Saturday 20 Dec 2014 (Local Time) from KBIV Reporting Station
Haze Haze  
Wind Chill: 26°   Ceiling: 2000
Heat Index: 32°   Visibility: 4mi
Dew Point: 28°   Wind: 7mph
Humidity: 85%   Direction: 160°SSE
Pressure: 30.27"   Gusts: NA
Location:  42.77°N, 86.1°W
Report Text: KBIV 210153Z AUTO 16006KT 4SM BR OVC020 00/M02 A3027 RMK AO2 SLP260 T00001022
Loading
Personal Weather Stations






























Interactive Weather Map New forecast layout! Learn more

10-Day Weather Forecast

Advertisements
Track Severe Weather on mobile